Aeroporto :
LOGIN :

Iscrizione | Disclaimer

   EN    FR    IT 

 










Sommario :    VFR   VFR Marginale   IFR   IFR Intensivo   IFR Molto Intensivo
Visibilità : 
Base nubi : 
>= 8 km
>= 3000ft
5 / 8 km
1000 / 3000 ft
1500m / 5 km
500 / 1000 ft
800 / 1500m
200 / 500 ft
< 800m
< 200 ft
Simboli :   Temporali  Nebbia  Neve Forte  Precipitazioni Forti  Vento > 20 kt
SIGMETs :   Varie  Temporali  Ghiacco  Turbolenza  Onda orograficha  Ceneri Vulcaniche






- Altitudine del aeroporto : 236 ft
- Codice IATA : MMX


ESMS - Malmö Sturup

ULTIMO METAR :
  • 120520Z 17010KT 9999 BKN013 OVC018 05/03 Q1002

METARs OBSOLETI :
  • 120450Z 16009KT 9999 BKN018 05/03 Q1002
  • 120420Z 16009KT 9999 OVC019 05/02 Q1002
  • 120350Z 17011KT 9999 OVC020 05/02 Q1002
  • 120320Z 17010KT 9999 FEW018 BKN023 05/02 Q1003
  • 120250Z 16014KT 9999 BKN020 05/02 Q1003

TAF TAF ESMS
Valido dal 12 a 06 ore il 13 a 06 ore UTC


120504Z 1206/1306 15010KT 9999 BKN018
TEMPO 1208/1215 BKN014



MetMap, La meteo Aeronautica in un colpo d'occhio ! - Copyright ORBIFLY Dicembre 2007 - Disclaimer

ORBIFLY MET'MAP TEAM :

Programmazione e sviluppo : Alexandra Zaïnal
Concezione e sviluppo : Baudouin d'Aumeries
Co-Programmazione e sviluppo : Marc-Olivier Méhu
Supporto tecnico e logistico : Manuel Goepfert
Aiuto per la traduzione : Arnaldo La Scala

Contatto : metmap@orbifly.com




FONTI E CREDITI :

   NOAA